Time;durP1;ratioP1;P1;durP2;ratioP2;P2;SDS_P1;SDS_P2;PMS_P1;PMS_P2;Temp;Humidity;BMP_temperature;BMP_pressure;BME280_temperature;BME280_humidity;BME280_pressure;Samples;Min_cycle;Max_cycle;Signal;HPM_P1;HPM_P2
2023/03/27 00:01:24;;;;;;;2.20;0.73;;;7.10;73.80;;;;;;5072324;28;20251;-69
2023/03/27 00:03:52;;;;;;;1.63;0.63;;;7.10;74.00;;;;;;5072604;28;20247;-69
2023/03/27 00:06:23;;;;;;;1.80;0.65;;;7.10;74.20;;;;;;5072730;28;20208;-70
2023/03/27 00:08:51;;;;;;;1.70;0.73;;;7.00;74.40;;;;;;5071863;28;20228;-70
2023/03/27 00:11:19;;;;;;;1.60;0.55;;;7.00;74.90;;;;;;5072743;28;20189;-69
2023/03/27 00:13:49;;;;;;;2.63;0.95;;;6.90;75.00;;;;;;5072026;28;20728;-69
2023/03/27 00:16:21;;;;;;;2.08;0.70;;;6.90;75.20;;;;;;5072553;28;20209;-70
2023/03/27 00:18:50;;;;;;;2.03;0.80;;;6.80;75.70;;;;;;5072163;28;20642;-70
2023/03/27 00:21:18;;;;;;;1.77;0.70;;;6.80;75.70;;;;;;5071996;28;20220;-69
2023/03/27 00:23:45;;;;;;;5.10;0.90;;;6.80;75.60;;;;;;5072115;28;20198;-70
2023/03/27 00:26:13;;;;;;;1.85;0.60;;;6.80;75.70;;;;;;5072486;28;20223;-70
2023/03/27 00:28:40;;;;;;;2.58;0.70;;;6.80;75.90;;;;;;5071986;28;20194;-70
2023/03/27 00:31:13;;;;;;;3.05;0.75;;;6.80;76.00;;;;;;5071719;28;20193;-69
2023/03/27 00:33:41;;;;;;;2.13;0.70;;;6.80;75.60;;;;;;5072306;28;20239;-70
2023/03/27 00:36:14;;;;;;;1.88;0.65;;;6.90;75.50;;;;;;5072484;28;20252;-69
2023/03/27 00:38:42;;;;;;;2.67;0.80;;;6.80;75.50;;;;;;5071953;28;20193;-70
2023/03/27 00:41:10;;;;;;;2.47;0.75;;;6.80;75.70;;;;;;5072173;28;20193;-70
2023/03/27 00:43:42;;;;;;;3.13;0.70;;;6.80;75.70;;;;;;5071860;28;20200;-69
2023/03/27 00:46:38;;;;;;;3.35;1.00;;;6.80;75.60;;;;;;5071921;28;20190;-70
2023/03/27 00:49:09;;;;;;;2.03;0.70;;;6.70;75.80;;;;;;5071972;28;20283;-69
2023/03/27 00:51:38;;;;;;;1.90;0.80;;;6.70;76.40;;;;;;5071830;28;20178;-69
2023/03/27 00:54:06;;;;;;;2.35;0.75;;;6.70;76.60;;;;;;5071732;28;20266;-69
2023/03/27 00:56:37;;;;;;;1.70;0.70;;;6.70;76.70;;;;;;5072306;28;20641;-69
2023/03/27 00:59:09;;;;;;;1.80;0.75;;;6.80;76.30;;;;;;5071790;28;20185;-69
2023/03/27 01:01:39;;;;;;;2.25;0.70;;;6.90;76.00;;;;;;5072406;28;20200;-69
2023/03/27 01:04:08;;;;;;;1.90;0.70;;;6.90;75.40;;;;;;5075790;28;20193;-69
2023/03/27 01:06:40;;;;;;;1.70;0.65;;;6.90;75.70;;;;;;5076392;28;20189;-69
2023/03/27 01:09:10;;;;;;;2.05;0.60;;;7.00;76.40;;;;;;5075385;28;20585;-69
2023/03/27 01:11:49;;;;;;;3.40;0.85;;;7.00;76.20;;;;;;5075523;28;20192;-69
2023/03/27 01:14:26;;;;;;;1.50;0.70;;;7.10;76.10;;;;;;5075931;28;20242;-70
2023/03/27 01:17:10;;;;;;;1.98;0.82;;;7.10;76.00;;;;;;5075526;28;20263;-70
2023/03/27 01:20:10;;;;;;;1.98;0.70;;;7.10;76.20;;;;;;5075770;28;20216;-71
2023/03/27 01:23:07;;;;;;;1.65;0.68;;;7.20;77.10;;;;;;5075189;28;20190;-73
2023/03/27 01:26:04;;;;;;;1.60;0.70;;;7.20;77.90;;;;;;5055917;28;20321;-73
2023/03/27 01:28:42;;;;;;;4.40;0.80;;;7.20;79.20;;;;;;5049588;28;20226;-70
2023/03/27 01:31:26;;;;;;;3.30;1.33;;;7.20;78.60;;;;;;5059757;28;20182;-70
2023/03/27 01:34:27;;;;;;;1.80;0.70;;;7.20;78.60;;;;;;5075106;28;20192;-69
2023/03/27 01:37:16;;;;;;;2.88;0.70;;;7.20;78.90;;;;;;5075440;28;20223;-70
2023/03/27 01:39:50;;;;;;;1.60;0.73;;;7.20;78.60;;;;;;5061864;28;20265;-69
2023/03/27 01:42:23;;;;;;;7.10;0.82;;;7.30;78.90;;;;;;5075380;28;20186;-69
2023/03/27 01:44:54;;;;;;;1.50;0.50;;;7.30;79.30;;;;;;5074852;28;20201;-69
2023/03/27 01:47:38;;;;;;;1.52;0.55;;;7.30;79.80;;;;;;5075314;28;20211;-69
2023/03/27 01:50:14;;;;;;;1.50;0.55;;;7.30;80.10;;;;;;5074959;28;20244;-70
2023/03/27 01:52:46;;;;;;;2.35;0.70;;;7.30;81.10;;;;;;5075264;28;20554;-69
2023/03/27 01:55:18;;;;;;;1.60;0.60;;;7.30;81.80;;;;;;5055229;28;20240;-70
2023/03/27 01:57:52;;;;;;;1.85;0.60;;;7.30;81.90;;;;;;5055312;28;20304;-70
2023/03/27 02:00:22;;;;;;;1.50;0.50;;;7.30;81.90;;;;;;5055438;28;20622;-69
2023/03/27 02:02:56;;;;;;;1.50;0.65;;;7.20;81.70;;;;;;5055220;28;20229;-70
2023/03/27 02:05:31;;;;;;;1.80;0.55;;;7.20;81.90;;;;;;5055007;28;20256;-69
2023/03/27 02:08:06;;;;;;;1.60;0.55;;;7.20;81.90;;;;;;5055413;28;20222;-70
2023/03/27 02:10:41;;;;;;;1.60;0.60;;;7.20;82.10;;;;;;5075146;28;20197;-69
2023/03/27 02:13:17;;;;;;;1.50;0.50;;;7.10;82.60;;;;;;5074596;28;20196;-69
2023/03/27 02:15:49;;;;;;;1.50;0.50;;;7.10;83.40;;;;;;5074933;28;20197;-70
2023/03/27 02:18:22;;;;;;;2.40;0.55;;;7.00;83.00;;;;;;5074297;28;20214;-69
2023/03/27 02:20:49;;;;;;;2.38;0.50;;;7.00;82.80;;;;;;5074744;28;20243;-70
2023/03/27 02:23:17;;;;;;;1.50;0.60;;;7.00;82.90;;;;;;5074873;28;20182;-69
2023/03/27 02:25:46;;;;;;;1.60;0.63;;;7.00;82.70;;;;;;5074630;28;20186;-70
2023/03/27 02:28:43;;;;;;;1.70;0.60;;;7.00;83.30;;;;;;5074291;28;20259;-70
2023/03/27 02:31:25;;;;;;;1.70;0.80;;;6.90;83.10;;;;;;5073789;28;20197;-70
2023/03/27 02:34:17;;;;;;;1.70;0.70;;;6.90;83.50;;;;;;5074052;28;20717;-69
2023/03/27 02:36:54;;;;;;;1.70;0.60;;;6.80;84.50;;;;;;5074294;28;20304;-69
2023/03/27 02:39:29;;;;;;;1.77;0.60;;;6.80;84.60;;;;;;5074577;28;20276;-69
2023/03/27 02:42:02;;;;;;;1.60;0.60;;;6.80;84.10;;;;;;5073909;28;20239;-69
2023/03/27 02:44:35;;;;;;;1.80;0.52;;;6.80;84.20;;;;;;5073808;28;20208;-69
2023/03/27 02:47:06;;;;;;;1.55;0.60;;;6.80;84.30;;;;;;5074134;28;20656;-69
2023/03/27 02:49:41;;;;;;;1.70;0.60;;;6.80;84.20;;;;;;5073974;28;20217;-70
2023/03/27 02:52:12;;;;;;;3.45;0.50;;;6.80;84.70;;;;;;5074169;28;20524;-72
2023/03/27 02:54:44;;;;;;;1.70;0.68;;;6.80;83.80;;;;;;5073721;28;20197;-70
2023/03/27 02:57:17;;;;;;;1.67;0.65;;;6.80;83.10;;;;;;5074237;28;20274;-70
2023/03/27 02:59:49;;;;;;;2.60;0.50;;;6.80;83.50;;;;;;5073370;28;20189;-70
2023/03/27 03:02:20;;;;;;;1.70;0.50;;;6.80;83.20;;;;;;5073578;28;20186;-70
2023/03/27 03:04:57;;;;;;;1.50;0.50;;;6.80;82.90;;;;;;5073625;28;20269;-69
2023/03/27 03:07:26;;;;;;;1.50;0.60;;;6.80;82.80;;;;;;5073607;28;20711;-69
2023/03/27 03:09:53;;;;;;;1.50;0.50;;;6.70;83.20;;;;;;5073521;28;20198;-69
2023/03/27 03:12:23;;;;;;;1.50;0.60;;;6.70;83.30;;;;;;5073307;28;20276;-69
2023/03/27 03:14:51;;;;;;;1.50;0.52;;;6.70;83.30;;;;;;5073207;28;20239;-70
2023/03/27 03:17:19;;;;;;;1.50;0.50;;;6.70;83.90;;;;;;5073376;28;20622;-71
2023/03/27 03:19:47;;;;;;;1.90;0.50;;;6.70;83.40;;;;;;5073511;28;20186;-70
2023/03/27 03:22:15;;;;;;;1.60;0.50;;;6.60;83.80;;;;;;5073696;28;20735;-70
2023/03/27 03:24:43;;;;;;;1.67;0.50;;;6.60;83.90;;;;;;5072504;28;20228;-71
2023/03/27 03:27:11;;;;;;;1.50;0.50;;;6.60;83.70;;;;;;5073449;28;20193;-71
2023/03/27 03:29:40;;;;;;;1.50;0.57;;;6.60;83.90;;;;;;5073150;28;20185;-69
2023/03/27 03:32:07;;;;;;;1.50;0.50;;;6.60;84.10;;;;;;5073433;28;20189;-69
2023/03/27 03:34:35;;;;;;;1.60;0.60;;;6.60;83.70;;;;;;5073108;28;20182;-69
2023/03/27 03:37:02;;;;;;;1.50;0.50;;;6.60;83.90;;;;;;5073253;28;20644;-69
2023/03/27 03:39:31;;;;;;;1.80;0.50;;;6.60;84.60;;;;;;5072766;28;20590;-70
2023/03/27 03:42:04;;;;;;;1.50;0.50;;;6.60;84.50;;;;;;5073185;28;20660;-69
2023/03/27 03:44:33;;;;;;;1.48;0.50;;;6.60;84.00;;;;;;5072732;28;20189;-69
2023/03/27 03:47:05;;;;;;;1.60;0.50;;;6.60;85.30;;;;;;5073145;28;20190;-69
2023/03/27 03:49:32;;;;;;;1.50;0.50;;;6.60;84.60;;;;;;5070194;28;20217;-70
2023/03/27 03:52:00;;;;;;;1.50;0.50;;;6.60;84.20;;;;;;5052921;28;20190;-70
2023/03/27 03:54:28;;;;;;;1.50;0.50;;;6.60;84.60;;;;;;5052943;28;20601;-70
2023/03/27 03:56:56;;;;;;;1.50;0.60;;;6.60;85.00;;;;;;5069015;28;20608;-69
2023/03/27 03:59:23;;;;;;;1.50;0.57;;;6.50;84.40;;;;;;5072477;28;20235;-69
2023/03/27 04:01:50;;;;;;;1.50;0.50;;;6.50;84.00;;;;;;5072629;28;20186;-69
2023/03/27 04:04:26;;;;;;;1.50;0.50;;;6.50;84.50;;;;;;5072901;28;20287;-70
2023/03/27 04:06:57;;;;;;;1.50;0.50;;;6.50;84.40;;;;;;5072663;28;20250;-69
2023/03/27 04:09:25;;;;;;;1.60;0.55;;;6.40;84.50;;;;;;5072738;28;20186;-69
2023/03/27 04:11:52;;;;;;;1.50;0.60;;;6.40;85.20;;;;;;5071725;28;20197;-69
2023/03/27 04:14:19;;;;;;;1.92;0.65;;;6.40;85.60;;;;;;5072475;28;20268;-69
2023/03/27 04:16:47;;;;;;;1.80;0.80;;;6.40;86.10;;;;;;5072219;28;20510;-70
2023/03/27 04:19:17;;;;;;;1.60;0.60;;;6.40;86.20;;;;;;5072234;28;20222;-70
2023/03/27 04:21:46;;;;;;;1.60;0.60;;;6.40;86.40;;;;;;5072201;28;20188;-71
2023/03/27 04:24:13;;;;;;;2.95;0.70;;;6.40;86.90;;;;;;5072304;28;20198;-69
2023/03/27 04:26:42;;;;;;;1.70;0.60;;;6.30;87.30;;;;;;5072046;28;20182;-69
2023/03/27 04:29:11;;;;;;;1.65;0.70;;;6.30;87.70;;;;;;5072267;28;20192;-70
2023/03/27 04:31:38;;;;;;;1.50;0.60;;;6.40;88.10;;;;;;5072018;28;20186;-69
2023/03/27 04:34:07;;;;;;;1.60;0.75;;;6.40;88.40;;;;;;5072417;28;20193;-69
2023/03/27 04:36:39;;;;;;;1.80;0.70;;;6.40;89.00;;;;;;5072147;28;20247;-69
2023/03/27 04:39:16;;;;;;;1.60;0.60;;;6.40;89.20;;;;;;5072016;28;20217;-69
2023/03/27 04:41:47;;;;;;;1.70;0.70;;;6.50;90.20;;;;;;5072067;28;20190;-69
2023/03/27 04:44:16;;;;;;;1.50;0.63;;;6.50;89.60;;;;;;5072669;28;20190;-69
2023/03/27 04:46:44;;;;;;;1.60;0.60;;;6.50;89.50;;;;;;5072040;28;20231;-69
2023/03/27 04:49:11;;;;;;;1.55;0.60;;;6.50;89.80;;;;;;5071916;28;20196;-69
2023/03/27 04:51:40;;;;;;;1.88;0.70;;;6.50;90.10;;;;;;5071629;28;20190;-70
2023/03/27 04:54:09;;;;;;;1.60;0.70;;;6.50;90.20;;;;;;5072243;28;20537;-69
2023/03/27 04:56:36;;;;;;;1.77;0.90;;;6.50;90.40;;;;;;5071880;28;20272;-69
2023/03/27 04:59:04;;;;;;;2.05;1.00;;;6.50;90.30;;;;;;5072031;28;20240;-69
2023/03/27 05:01:32;;;;;;;2.42;0.75;;;6.50;90.30;;;;;;5071936;28;20197;-69
2023/03/27 05:04:01;;;;;;;1.70;0.80;;;6.50;90.40;;;;;;5072183;28;20185;-69
2023/03/27 05:06:28;;;;;;;1.50;0.60;;;6.50;90.30;;;;;;5071624;28;20802;-69
2023/03/27 05:08:56;;;;;;;1.70;0.68;;;6.50;90.00;;;;;;5071042;28;20217;-69
2023/03/27 05:11:25;;;;;;;1.90;0.75;;;6.60;89.50;;;;;;5072070;28;20617;-69
2023/03/27 05:13:53;;;;;;;2.33;0.98;;;6.60;88.80;;;;;;5071289;28;20178;-70
2023/03/27 05:16:20;;;;;;;1.70;0.80;;;6.50;88.70;;;;;;5070816;28;20193;-69
2023/03/27 05:18:48;;;;;;;1.65;0.68;;;6.50;88.90;;;;;;5071833;28;20221;-69
2023/03/27 05:21:15;;;;;;;3.00;0.70;;;6.50;88.90;;;;;;5071982;28;20189;-69
2023/03/27 05:23:43;;;;;;;1.77;0.80;;;6.50;89.50;;;;;;5071432;28;20189;-69
2023/03/27 05:26:11;;;;;;;1.88;0.77;;;6.40;89.40;;;;;;5072093;28;20276;-69
2023/03/27 05:28:39;;;;;;;1.60;0.80;;;6.40;88.90;;;;;;5072121;28;20186;-69
2023/03/27 05:31:09;;;;;;;1.50;0.52;;;6.40;88.40;;;;;;5071444;28;20224;-69
2023/03/27 05:33:36;;;;;;;1.88;0.70;;;6.40;88.70;;;;;;5072011;28;20610;-69
2023/03/27 05:36:04;;;;;;;3.15;0.80;;;6.40;89.00;;;;;;5071843;28;20235;-69
2023/03/27 05:38:33;;;;;;;1.50;0.60;;;6.40;89.20;;;;;;5071521;28;20217;-69
2023/03/27 05:41:01;;;;;;;1.70;0.60;;;6.30;88.80;;;;;;5071185;28;20190;-69
2023/03/27 05:43:28;;;;;;;1.70;0.60;;;6.30;88.80;;;;;;5072017;28;20281;-69
2023/03/27 05:45:57;;;;;;;1.50;0.60;;;6.20;88.60;;;;;;5071518;28;20185;-69
2023/03/27 05:48:25;;;;;;;1.80;0.80;;;6.30;88.70;;;;;;5073090;28;20276;-69
2023/03/27 05:50:52;;;;;;;1.50;0.50;;;6.10;88.50;;;;;;5074785;28;20273;-69
2023/03/27 05:53:19;;;;;;;1.55;0.60;;;6.10;88.60;;;;;;5075242;28;20586;-71
2023/03/27 05:55:46;;;;;;;1.90;0.68;;;6.00;89.00;;;;;;5075036;28;20221;-69
2023/03/27 05:58:14;;;;;;;1.90;0.68;;;6.00;88.90;;;;;;5075075;28;20683;-69
2023/03/27 06:00:43;;;;;;;1.80;0.60;;;6.00;88.80;;;;;;5074659;28;20186;-69
2023/03/27 06:03:13;;;;;;;1.70;0.70;;;5.90;88.40;;;;;;5074885;28;20193;-70
2023/03/27 06:05:41;;;;;;;1.60;0.60;;;5.90;88.10;;;;;;5073386;28;20247;-69
2023/03/27 06:08:13;;;;;;;1.70;0.60;;;5.90;88.40;;;;;;5074357;28;20221;-69
2023/03/27 06:10:42;;;;;;;1.50;0.50;;;5.80;88.60;;;;;;5074999;28;20196;-69
2023/03/27 06:13:12;;;;;;;2.03;0.80;;;5.80;89.40;;;;;;5074661;28;20209;-69
2023/03/27 06:15:41;;;;;;;1.70;0.70;;;5.80;89.40;;;;;;5074292;28;20190;-69
2023/03/27 06:18:09;;;;;;;1.60;0.60;;;5.80;88.90;;;;;;5074208;28;20216;-69
2023/03/27 06:20:39;;;;;;;1.58;0.60;;;5.70;87.80;;;;;;5074886;28;20200;-69
2023/03/27 06:23:08;;;;;;;1.92;0.70;;;5.70;87.10;;;;;;5074281;28;20181;-69
2023/03/27 06:25:37;;;;;;;1.60;0.70;;;5.70;86.80;;;;;;5074480;28;20192;-69
2023/03/27 06:28:08;;;;;;;2.17;0.70;;;5.70;87.40;;;;;;5074431;28;20250;-69
2023/03/27 06:30:36;;;;;;;1.55;0.60;;;5.70;87.70;;;;;;5074404;28;20714;-69
2023/03/27 06:33:05;;;;;;;1.95;0.60;;;5.70;87.80;;;;;;5074213;28;20188;-69
2023/03/27 06:35:33;;;;;;;1.70;0.60;;;5.70;87.50;;;;;;5074549;28;20185;-69
2023/03/27 06:38:02;;;;;;;1.55;0.57;;;5.70;88.00;;;;;;5073747;28;20209;-69
2023/03/27 06:40:31;;;;;;;2.03;0.85;;;5.80;87.30;;;;;;5073510;28;20240;-69
2023/03/27 06:43:00;;;;;;;1.70;0.60;;;5.80;86.90;;;;;;5074389;28;20221;-69
2023/03/27 06:45:29;;;;;;;2.22;1.00;;;5.70;86.60;;;;;;5074139;28;20679;-69
2023/03/27 06:47:58;;;;;;;1.50;0.57;;;5.70;86.00;;;;;;5074137;28;20200;-70
2023/03/27 06:50:26;;;;;;;1.55;0.52;;;5.60;85.60;;;;;;5073450;28;20189;-69
2023/03/27 06:52:54;;;;;;;3.38;0.80;;;5.60;85.70;;;;;;5074194;28;20598;-70
2023/03/27 06:55:24;;;;;;;1.60;0.50;;;5.60;86.10;;;;;;5073731;28;20186;-69
2023/03/27 06:57:53;;;;;;;1.80;0.60;;;5.60;86.50;;;;;;5073960;28;20189;-69
2023/03/27 07:00:23;;;;;;;1.75;0.55;;;5.60;86.60;;;;;;5072188;28;20197;-69
2023/03/27 07:02:54;;;;;;;1.60;0.55;;;5.60;86.10;;;;;;5073327;28;20529;-70
2023/03/27 07:05:21;;;;;;;1.92;0.65;;;5.50;86.00;;;;;;5073783;28;20189;-69
2023/03/27 07:07:49;;;;;;;1.92;0.70;;;5.60;86.10;;;;;;5073232;28;20283;-70
2023/03/27 07:10:18;;;;;;;1.90;0.75;;;5.60;85.90;;;;;;5074015;28;20198;-69
2023/03/27 07:12:49;;;;;;;1.90;0.70;;;5.60;86.40;;;;;;5073339;28;20209;-69
2023/03/27 07:15:17;;;;;;;1.70;0.60;;;5.50;86.40;;;;;;5073883;28;20198;-69
2023/03/27 07:17:45;;;;;;;1.50;0.60;;;5.50;86.10;;;;;;5073517;28;20186;-69
2023/03/27 07:20:13;;;;;;;1.77;0.90;;;5.50;86.10;;;;;;5072818;28;20217;-70
2023/03/27 07:22:42;;;;;;;1.98;0.82;;;5.50;86.40;;;;;;5073197;28;20182;-69
2023/03/27 07:25:11;;;;;;;2.80;0.90;;;5.50;87.00;;;;;;5073511;28;20189;-70
2023/03/27 07:27:39;;;;;;;2.85;0.90;;;5.50;87.30;;;;;;5073415;28;20604;-69
2023/03/27 07:30:10;;;;;;;1.70;0.60;;;5.50;87.30;;;;;;5072575;28;20232;-69
2023/03/27 07:32:38;;;;;;;1.70;0.70;;;5.50;86.10;;;;;;5053620;28;20222;-69
2023/03/27 07:35:07;;;;;;;1.60;0.60;;;5.50;85.70;;;;;;5071950;28;20189;-69
2023/03/27 07:37:37;;;;;;;2.30;0.73;;;5.50;85.60;;;;;;5073844;28;20663;-69
2023/03/27 07:40:07;;;;;;;2.28;0.80;;;5.50;85.20;;;;;;5072578;28;20243;-69
2023/03/27 07:42:36;;;;;;;1.60;0.70;;;5.50;85.60;;;;;;5073179;28;20194;-69
2023/03/27 07:45:04;;;;;;;1.95;0.77;;;5.50;86.20;;;;;;5072838;28;20219;-69
2023/03/27 07:47:32;;;;;;;1.60;0.60;;;5.40;85.60;;;;;;5073069;28;20190;-69
2023/03/27 07:50:00;;;;;;;2.00;0.90;;;5.40;85.60;;;;;;5072479;28;20845;-69
2023/03/27 07:52:28;;;;;;;1.70;0.75;;;5.40;85.70;;;;;;5072449;28;20259;-69
2023/03/27 07:54:55;;;;;;;1.65;0.73;;;5.40;85.20;;;;;;5072633;28;20189;-69
2023/03/27 07:57:24;;;;;;;1.73;0.60;;;5.40;85.10;;;;;;5072617;28;20193;-69
2023/03/27 07:59:53;;;;;;;1.50;0.60;;;5.40;85.00;;;;;;5072924;28;20217;-69
2023/03/27 08:02:20;;;;;;;1.73;0.63;;;5.40;84.90;;;;;;5072118;28;20182;-69
2023/03/27 08:04:50;;;;;;;1.60;0.70;;;5.40;84.90;;;;;;5071844;28;20186;-69
2023/03/27 08:07:20;;;;;;;1.65;0.63;;;5.30;84.90;;;;;;5072479;28;20222;-69
2023/03/27 08:09:48;;;;;;;1.80;0.60;;;5.30;84.90;;;;;;5071977;28;20182;-69
2023/03/27 08:12:18;;;;;;;3.53;1.80;;;5.40;85.10;;;;;;5072491;28;20221;-70
2023/03/27 08:14:47;;;;;;;3.28;1.77;;;5.40;85.60;;;;;;5068633;28;20185;-71
2023/03/27 08:17:14;;;;;;;3.90;2.15;;;5.40;85.50;;;;;;5070639;28;20220;-69
2023/03/27 08:19:44;;;;;;;2.15;1.08;;;5.40;85.80;;;;;;5070294;28;20236;-71
2023/03/27 08:22:13;;;;;;;1.77;0.90;;;5.40;85.90;;;;;;5066206;28;20190;-70
2023/03/27 08:24:42;;;;;;;1.60;0.70;;;5.40;85.50;;;;;;5069941;28;20248;-69
2023/03/27 08:27:12;;;;;;;1.70;0.60;;;5.40;85.50;;;;;;5070463;28;20280;-69
2023/03/27 08:29:42;;;;;;;2.75;1.13;;;5.30;85.50;;;;;;5070787;28;20280;-69
2023/03/27 08:32:17;;;;;;;3.25;1.42;;;5.40;86.10;;;;;;5066058;28;20193;-69
2023/03/27 08:34:44;;;;;;;6.05;1.60;;;5.30;85.60;;;;;;5070370;28;20272;-70
2023/03/27 08:37:13;;;;;;;3.90;1.42;;;5.40;85.20;;;;;;5067693;28;20186;-70
2023/03/27 08:39:45;;;;;;;2.30;1.45;;;5.40;84.60;;;;;;5069563;28;20225;-70
2023/03/27 08:42:16;;;;;;;5.40;2.30;;;5.30;84.60;;;;;;5069291;28;20193;-71
2023/03/27 08:44:44;;;;;;;3.90;2.95;;;5.30;85.20;;;;;;5067576;28;20277;-69
2023/03/27 08:47:15;;;;;;;8.30;4.13;;;5.30;85.40;;;;;;5070078;28;20221;-70
2023/03/27 08:49:47;;;;;;;5.88;3.42;;;5.30;85.20;;;;;;5070318;28;20205;-70
2023/03/27 08:52:20;;;;;;;4.75;2.60;;;5.30;85.30;;;;;;5067053;28;20280;-71
2023/03/27 08:54:57;;;;;;;6.47;3.30;;;5.30;85.60;;;;;;5070437;28;20229;-69
2023/03/27 08:57:27;;;;;;;6.43;2.60;;;5.30;85.10;;;;;;5064979;28;20185;-69
2023/03/27 08:59:57;;;;;;;3.10;2.03;;;5.30;85.60;;;;;;5070851;28;20302;-71
2023/03/27 09:02:36;;;;;;;3.95;2.50;;;5.30;85.60;;;;;;5070115;28;20273;-70
2023/03/27 09:05:09;;;;;;;3.95;2.40;;;5.30;85.10;;;;;;5063147;28;20189;-70
2023/03/27 09:07:43;;;;;;;4.50;2.22;;;5.30;85.00;;;;;;5067738;28;20213;-70
2023/03/27 09:10:17;;;;;;;5.80;3.05;;;5.30;85.00;;;;;;5069400;28;20208;-69
2023/03/27 09:12:59;;;;;;;4.50;2.50;;;5.30;85.20;;;;;;5069438;28;20640;-69
2023/03/27 09:15:31;;;;;;;3.30;2.38;;;5.40;85.20;;;;;;5066959;28;20292;-70
2023/03/27 09:18:05;;;;;;;4.07;2.40;;;5.40;85.20;;;;;;5065472;28;20224;-70
2023/03/27 09:20:36;;;;;;;3.25;2.42;;;5.40;85.50;;;;;;5068042;28;20318;-70
2023/03/27 09:23:11;;;;;;;5.53;2.45;;;5.40;86.00;;;;;;5070328;28;20205;-70
2023/03/27 09:25:41;;;;;;;3.05;1.90;;;5.50;86.20;;;;;;5071302;28;20193;-69
2023/03/27 09:28:22;;;;;;;4.43;2.20;;;5.50;86.00;;;;;;5073116;28;21048;-70
2023/03/27 09:30:49;;;;;;;7.78;2.33;;;5.50;85.80;;;;;;5063901;28;20194;-69
2023/03/27 09:33:18;;;;;;;5.28;2.53;;;5.50;85.30;;;;;;5071646;28;20251;-70
2023/03/27 09:35:46;;;;;;;5.30;2.80;;;5.50;85.30;;;;;;5072444;28;20288;-69
2023/03/27 09:38:26;;;;;;;3.95;2.95;;;5.50;85.30;;;;;;5071864;28;20194;-69
2023/03/27 09:40:57;;;;;;;5.45;2.65;;;5.50;84.80;;;;;;5068278;28;20274;-71
2023/03/27 09:43:55;;;;;;;5.25;3.30;;;5.60;83.60;;;;;;5067358;28;20193;-73
2023/03/27 09:46:26;;;;;;;5.90;3.50;;;5.60;82.90;;;;;;5070107;28;20586;-69
2023/03/27 09:48:59;;;;;;;5.10;3.30;;;5.50;82.90;;;;;;5071878;28;20507;-69
2023/03/27 09:51:41;;;;;;;5.40;2.80;;;5.50;83.10;;;;;;5071374;28;20190;-71
2023/03/27 09:54:13;;;;;;;11.02;4.38;;;5.40;82.80;;;;;;5065960;28;20552;-72
2023/03/27 09:56:42;;;;;;;6.72;2.95;;;5.40;82.20;;;;;;5071834;28;20189;-70
2023/03/27 09:59:25;;;;;;;6.93;3.42;;;5.30;82.10;;;;;;5067989;28;20232;-69
2023/03/27 10:01:56;;;;;;;6.13;2.83;;;5.30;82.60;;;;;;5064521;28;20186;-71
2023/03/27 10:04:28;;;;;;;5.20;2.83;;;5.20;82.10;;;;;;5067647;28;20250;-69
2023/03/27 10:07:04;;;;;;;4.90;2.83;;;5.20;82.00;;;;;;5065929;28;20198;-70
2023/03/27 10:09:35;;;;;;;7.88;3.08;;;5.20;81.20;;;;;;5063660;28;20233;-70
2023/03/27 10:12:09;;;;;;;6.85;2.80;;;5.10;81.50;;;;;;5068274;28;20193;-69
2023/03/27 10:14:41;;;;;;;5.40;2.80;;;5.10;81.90;;;;;;5071974;28;20607;-69
2023/03/27 10:17:15;;;;;;;8.20;3.80;;;5.10;81.60;;;;;;5070056;28;20286;-69
2023/03/27 10:19:42;;;;;;;8.10;3.85;;;5.00;82.00;;;;;;5070625;28;20309;-72
2023/03/27 10:22:20;;;;;;;6.28;3.53;;;4.90;82.60;;;;;;5069873;28;20240;-69
2023/03/27 10:24:49;;;;;;;9.45;4.53;;;5.00;82.10;;;;;;5071928;28;20281;-71
2023/03/27 10:27:23;;;;;;;8.63;3.85;;;5.00;82.20;;;;;;5069783;28;20227;-70
2023/03/27 10:29:56;;;;;;;8.45;3.40;;;5.10;82.20;;;;;;5069429;28;20622;-69
2023/03/27 10:32:45;;;;;;;7.43;3.65;;;5.10;82.40;;;;;;5070569;28;20189;-70
2023/03/27 10:35:23;;;;;;;9.52;3.88;;;5.10;81.60;;;;;;5071539;28;20239;-69
2023/03/27 10:37:51;;;;;;;10.25;3.90;;;5.20;82.00;;;;;;5067847;28;20185;-69
2023/03/27 10:40:24;;;;;;;9.77;3.75;;;5.20;81.80;;;;;;5070551;28;20244;-69
2023/03/27 10:42:55;;;;;;;9.00;4.30;;;5.30;81.60;;;;;;5072166;28;20247;-69
2023/03/27 10:45:23;;;;;;;9.70;3.47;;;5.40;80.70;;;;;;5068928;28;20572;-70
2023/03/27 10:47:54;;;;;;;9.75;4.50;;;5.50;80.70;;;;;;5069655;28;20201;-70
2023/03/27 10:50:28;;;;;;;6.53;3.80;;;5.50;80.50;;;;;;5071621;28;20198;-69
2023/03/27 10:53:03;;;;;;;10.55;5.00;;;5.60;80.30;;;;;;5065928;28;20205;-70
2023/03/27 10:55:53;;;;;;;6.57;3.83;;;5.60;80.60;;;;;;5065817;28;20275;-69
2023/03/27 10:58:31;;;;;;;8.15;3.83;;;5.70;78.30;;;;;;5055180;28;20198;-72
2023/03/27 11:01:04;;;;;;;5.70;2.78;;;5.70;76.90;;;;;;5066359;28;20224;-70
2023/03/27 11:03:37;;;;;;;4.05;3.13;;;5.70;76.60;;;;;;5070412;28;20189;-69
2023/03/27 11:06:10;;;;;;;5.40;3.10;;;5.70;76.30;;;;;;5069464;28;20199;-70
2023/03/27 11:08:50;;;;;;;7.68;3.40;;;5.60;75.90;;;;;;5071730;28;20225;-70
2023/03/27 11:11:25;;;;;;;6.25;3.45;;;5.60;77.20;;;;;;5071575;28;20225;-69
2023/03/27 11:14:00;;;;;;;4.20;3.03;;;5.70;76.80;;;;;;5072569;28;20639;-70
2023/03/27 11:16:33;;;;;;;6.32;3.50;;;5.80;76.90;;;;;;5071223;28;20647;-69
2023/03/27 11:19:16;;;;;;;7.43;3.53;;;6.00;78.20;;;;;;5070014;28;20197;-69
2023/03/27 11:21:52;;;;;;;7.45;3.78;;;6.20;77.10;;;;;;5071281;28;20181;-70
2023/03/27 11:24:28;;;;;;;6.35;3.55;;;6.30;74.20;;;;;;5068307;28;20201;-69
2023/03/27 11:27:06;;;;;;;5.25;3.20;;;6.30;73.70;;;;;;5068304;28;20354;-70
2023/03/27 11:29:40;;;;;;;6.53;4.00;;;6.30;73.30;;;;;;5072520;28;20189;-70
2023/03/27 11:32:18;;;;;;;14.32;3.45;;;6.40;73.60;;;;;;5072949;28;20198;-70
2023/03/27 11:34:51;;;;;;;6.18;3.33;;;6.50;73.50;;;;;;5071287;28;20643;-70
2023/03/27 11:37:24;;;;;;;8.50;3.58;;;6.70;72.80;;;;;;5072038;28;20259;-70
2023/03/27 11:39:55;;;;;;;7.35;4.70;;;6.90;71.70;;;;;;5071887;28;20210;-75
2023/03/27 11:42:27;;;;;;;15.70;3.85;;;6.80;69.60;;;;;;5072936;28;20186;-69
2023/03/27 11:44:55;;;;;;;9.10;3.28;;;6.80;69.50;;;;;;5072231;28;20281;-70
2023/03/27 11:47:44;;;;;;;6.30;3.30;;;6.60;68.60;;;;;;5068961;28;20194;-70
2023/03/27 11:50:22;;;;;;;9.20;2.85;;;6.60;68.90;;;;;;5069038;28;20198;-70
2023/03/27 11:53:12;;;;;;;6.55;2.90;;;6.60;69.30;;;;;;5072819;28;20552;-70
2023/03/27 11:55:59;;;;;;;5.90;2.97;;;6.70;70.00;;;;;;5065085;28;20605;-70
2023/03/27 11:58:35;;;;;;;6.80;3.58;;;7.00;70.20;;;;;;5072668;28;20232;-70
2023/03/27 12:01:08;;;;;;;6.75;3.03;;;7.40;69.20;;;;;;5066454;28;20216;-70
2023/03/27 12:03:53;;;;;;;8.20;3.42;;;7.60;68.00;;;;;;5071670;28;20280;-70
2023/03/27 12:06:29;;;;;;;11.68;3.10;;;7.90;67.60;;;;;;5069313;28;20284;-70
2023/03/27 12:09:20;;;;;;;5.70;2.90;;;8.30;66.10;;;;;;5070675;28;20229;-70
2023/03/27 12:12:13;;;;;;;12.00;3.15;;;9.00;64.90;;;;;;5072256;28;20292;-70
2023/03/27 12:14:54;;;;;;;4.47;2.88;;;9.40;61.40;;;;;;5068674;28;20284;-72
2023/03/27 12:17:32;;;;;;;6.53;3.15;;;9.80;58.00;;;;;;5071813;28;20194;-69
2023/03/27 12:20:20;;;;;;;8.43;3.00;;;10.20;55.30;;;;;;5072136;28;20300;-70
2023/03/27 12:22:57;;;;;;;5.05;2.70;;;11.20;55.20;;;;;;5069768;28;20284;-70
2023/03/27 12:25:48;;;;;;;11.55;3.90;;;13.90;53.30;;;;;;5072033;28;20577;-71
2023/03/27 12:28:32;;;;;;;5.97;2.83;;;15.40;45.40;;;;;;5071039;28;20197;-71
2023/03/27 12:31:06;;;;;;;9.30;3.20;;;15.00;42.50;;;;;;5069619;28;20241;-71
2023/03/27 12:33:44;;;;;;;4.40;2.30;;;14.10;43.10;;;;;;5071783;28;20482;-70
2023/03/27 12:36:18;;;;;;;6.18;2.58;;;13.40;40.40;;;;;;5068291;28;20240;-70
2023/03/27 12:38:45;;;;;;;4.78;3.30;;;12.80;41.50;;;;;;5068231;28;20272;-70
2023/03/27 12:41:20;;;;;;;8.40;3.40;;;12.30;43.10;;;;;;5064301;28;20264;-70
2023/03/27 12:43:54;;;;;;;7.15;3.53;;;11.80;44.30;;;;;;5068293;28;20255;-70
2023/03/27 12:46:35;;;;;;;3.95;2.33;;;11.60;45.20;;;;;;5067608;28;20243;-70
2023/03/27 12:49:23;;;;;;;13.30;3.47;;;11.30;46.20;;;;;;5072211;28;20574;-71
2023/03/27 12:52:04;;;;;;;10.38;2.85;;;11.00;46.80;;;;;;5069362;28;20590;-70
2023/03/27 12:54:32;;;;;;;7.00;3.60;;;10.80;47.70;;;;;;5071668;28;20207;-70
2023/03/27 12:57:04;;;;;;;6.10;3.10;;;10.80;49.30;;;;;;5071140;28;20225;-71
2023/03/27 12:59:34;;;;;;;7.45;3.72;;;11.10;48.30;;;;;;5075357;28;20192;-70
2023/03/27 13:02:34;;;;;;;7.15;3.15;;;11.80;48.50;;;;;;5075963;28;20710;-70
2023/03/27 13:05:27;;;;;;;5.68;3.75;;;12.40;45.90;;;;;;5040084;28;20197;-70
2023/03/27 13:08:14;;;;;;;5.40;3.13;;;12.60;45.50;;;;;;5070767;28;20222;-70
2023/03/27 13:10:52;;;;;;;5.03;3.05;;;12.80;43.60;;;;;;5075459;28;20205;-70
2023/03/27 13:13:37;;;;;;;7.35;3.53;;;12.70;44.60;;;;;;5072612;28;20280;-70
2023/03/27 13:16:37;;;;;;;5.32;2.85;;;12.50;44.40;;;;;;5073953;28;20225;-70
2023/03/27 13:19:28;;;;;;;10.05;2.53;;;12.40;44.60;;;;;;5073867;28;20194;-70
2023/03/27 13:22:14;;;;;;;7.10;3.15;;;12.20;43.60;;;;;;5068165;28;20265;-70
2023/03/27 13:25:00;;;;;;;6.72;2.88;;;11.80;43.70;;;;;;5075658;28;20277;-70